AKST,Max TemperatureF,Mean TemperatureF,Min TemperatureF,Max Dew PointF,MeanDew PointF,Min DewpointF,Max Humidity, Mean Humidity, Min Humidity, Max Sea Level PressureIn, Mean Sea Level PressureIn, Min Sea Level PressureIn, Max VisibilityMiles, Mean VisibilityMiles, Min VisibilityMiles, Max Wind SpeedMPH, Mean Wind SpeedMPH, Max Gust SpeedMPH,PrecipitationIn, CloudCover, Events, WindDirDegrees
2012-1-1,39,34,28,34,29,27,93,83,70,29.82,29.38,29.04,10,7,1,25,10,34,0.00,8,,355
2012-1-2,39,34,30,34,28,23,87,76,60,29.67,29.49,29.06,10,10,2,20,11,29,0.00,6,,170
2012-1-3,30,28,26,28,26,25,93,86,80,29.64,29.36,29.17,10,8,0,12,4,,0.00,6,,344
2012-1-4,39,36,33,34,31,30,93,86,81,29.16,29.04,28.86,10,7,1,14,6,20,0.00,8,,126
2012-1-5,39,36,32,36,27,19,93,69,45,29.99,29.69,29.30,10,10,7,18,8,29,0.00,6,,215
2012-1-6,39,34,28,32,25,19,93,70,48,29.94,29.73,29.59,10,9,1,18,5,28,0.00,8,,68
2012-1-7,41,39,37,36,32,28,87,78,70,29.67,29.29,29.09,10,9,5,29,14,37,0.00,8,,133
2012-1-8,42,40,39,36,34,32,87,81,70,29.50,29.36,29.20,10,10,9,24,17,30,0.00,8,,139
2012-1-9,33,28,24,30,22,18,87,69,55,30.22,29.87,29.57,10,9,1,30,12,37,0.00,4,,237
2012-1-10,35,25,15,28,22,12,93,73,60,30.47,30.42,30.28,10,9,2,25,8,32,0.00,8,,137
2012-1-11,39,36,33,34,31,28,87,80,70,30.20,30.05,29.97,10,10,5,28,17,34,0.00,8,,134
2012-1-12,39,37,35,34,32,30,93,81,70,29.82,29.65,29.49,10,10,5,23,13,30,0.00,8,,143
2012-1-13,33,30,26,28,24,19,93,80,64,29.99,29.94,29.86,10,9,2,14,8,20,0.00,5,,171
2012-1-14,26,22,17,21,6,-2,80,53,39,30.40,30.16,29.91,10,10,10,21,14,28,0.00,2,,346
2012-1-15,21,18,15,-2,-9,-11,42,29,25,30.62,30.57,30.51,10,10,6,25,13,37,0.00,0,,15
2012-1-16,14,12,10,-15,-15,-17,31,29,25,30.64,30.60,30.57,10,10,10,17,11,29,0.00,0,,18
2012-1-17,12,9,6,-8,-13,-17,48,34,29,30.56,30.45,30.35,10,10,10,18,12,28,0.00,0,,11
2012-1-18,21,16,10,-6,-8,-9,41,32,28,30.36,30.22,30.05,10,10,10,15,9,24,0.00,0,,10
2012-1-19,21,10,0,3,-6,-9,78,55,26,30.00,29.83,29.65,10,10,10,12,3,,0.00,0,,356
2012-1-20,24,19,14,1,-2,-4,57,37,28,29.54,29.30,28.99,10,10,10,12,7,16,0.00,7,,352
2012-1-21,,,,,,,,,,28.80,28.73,28.65,10,8,1,9,4,,0.00,8,,327
2012-1-22,35,32,28,28,27,25,93,75,70,29.11,29.06,28.87,10,9,2,18,13,24,0.00,7,,142
2012-1-23,,,,,,,,,,29.17,29.13,29.07,10,10,3,10,3,,0.00,8,,121
2012-1-24,,,,,,,,,,29.08,28.76,28.64,10,6,1,14,7,,0.00,8,,335
2012-1-25,,,,,,,,,,29.35,29.08,28.49,10,4,0,20,8,39,0.00,7,,159
2012-1-26,,,,,,,,,,29.74,29.62,29.45,10,6,0,13,8,26,0.00,7,,155
2012-1-27,,,,,,,,,,30.07,29.92,29.73,10,6,0,13,6,20,0.00,8,,172
2012-1-28,,,,,,,,,,29.99,29.56,29.23,10,9,1,9,3,,0.00,7,,340
2012-1-29,,,,,,,,,,29.25,29.22,29.19,10,3,1,8,2,,0.00,8,,333
2012-1-30,,,,,,,,,,29.34,29.29,29.22,10,7,1,15,10,,0.00,8,,59
2012-1-31,37,35,33,34,33,30,93,86,81,29.53,29.37,29.26,10,10,10,15,9,,0.00,8,,138